Terminal Aerodrome Forecast
Issued by NWS Duluth, MN

Home | Current Version | Previous Version | Text Only | Print | Product List | Glossary On
Versions: 1 2 3 4 5 6 7 8 9 10 11 12 13 14 15 16 17 18 19 20 21 22 23 24 25 26 27 28 29 30 31 32 33 34
000
FTUS43 KDLH 060539
TAFDLH
TAF
KDLH 060539Z 0606/0706 15013KT P6SM OVC015
     FM060900 18013G20KT P6SM VCSH OVC012
     FM061100 21014KT P6SM OVC010
     FM061700 21013G25KT P6SM OVC015
     FM062100 24012G23KT P6SM -SN OVC015
     FM070500 25014G24KT P6SM OVC035=

USA.gov is the U.S. government's official web portal to all federal, state and local government web resources and services.